createdAt,value
2022-12-25T00:06:32.432Z,95.41
2022-12-25T00:34:45.474Z,95.64
2022-12-25T01:03:07.115Z,99.99
2022-12-25T01:31:23.252Z,100
2022-12-25T01:59:38.718Z,100
2022-12-25T02:28:00.541Z,100
2022-12-25T02:56:21.670Z,97.6
2022-12-25T03:24:44.755Z,96.87
2022-12-25T03:53:04.743Z,97.12
2022-12-25T04:21:28.377Z,98.97
2022-12-25T04:49:47.500Z,100
2022-12-25T05:18:18.420Z,100
2022-12-25T05:46:38.062Z,100
2022-12-25T06:14:59.386Z,100
2022-12-25T06:43:24.636Z,100
2022-12-25T07:11:36.766Z,100
2022-12-25T07:40:05.328Z,100
2022-12-25T08:08:59.083Z,99.77
2022-12-25T08:37:58.852Z,87
2022-12-25T09:06:41.064Z,84.17
2022-12-25T09:35:36.911Z,77.66
2022-12-25T10:04:22.077Z,82.63
2022-12-25T10:33:22.418Z,82.39
2022-12-25T11:01:59.385Z,86.92
2022-12-25T11:31:01.893Z,76.99
2022-12-25T12:00:02.555Z,70.66
2022-12-25T12:28:11.421Z,74.24
2022-12-25T12:56:09.665Z,81.98
2022-12-25T13:24:33.155Z,83.87
2022-12-25T13:52:53.538Z,86.53
2022-12-25T14:21:51.013Z,87.36
2022-12-25T14:50:37.869Z,87.51
2022-12-25T15:19:39.243Z,88.54
2022-12-25T15:47:45.559Z,80.52
2022-12-25T16:16:38.943Z,71.28
2022-12-25T16:45:21.033Z,66.83
2022-12-25T17:14:11.741Z,66.13
2022-12-25T17:42:58.778Z,67.34
2022-12-25T18:12:01.597Z,66.43
2022-12-25T18:40:26.475Z,68.32
2022-12-25T19:09:12.181Z,68.19
2022-12-25T19:38:08.505Z,67.57
2022-12-25T20:06:58.760Z,67.33
2022-12-25T20:35:50.532Z,70.64
2022-12-25T21:04:54.608Z,74.73
2022-12-25T21:33:02.819Z,75.44
2022-12-25T22:02:00.507Z,76.96
2022-12-25T22:30:37.888Z,78.47
2022-12-25T22:59:36.670Z,78.43
2022-12-25T23:28:12.598Z,81.41
2022-12-25T23:56:49.452Z,80.73
